createdAt,value
2022-10-22T00:00:27.027Z,101016.19
2022-10-22T00:02:57.722Z,101026.75
2022-10-22T00:05:26.580Z,101026.25
2022-10-22T00:07:56.210Z,101025.62
2022-10-22T00:10:26.723Z,101023.13
2022-10-22T00:12:56.584Z,101016.72
2022-10-22T00:15:26.901Z,101000.33
2022-10-22T00:17:58.174Z,101004.89
2022-10-22T00:20:29.741Z,101012.44
2022-10-22T00:22:58.647Z,101010.09
2022-10-22T00:25:28.030Z,101004.03
2022-10-22T00:27:57.809Z,100995.05
2022-10-22T00:30:26.825Z,100985.94
2022-10-22T00:32:57.043Z,100982.23
2022-10-22T00:35:27.511Z,100974.88
2022-10-22T00:37:56.701Z,100979.44
2022-10-22T00:40:25.340Z,100982.50
2022-10-22T00:42:54.825Z,100989.50
2022-10-22T00:45:26.711Z,100984.30
2022-10-22T00:48:02.700Z,100979.47
2022-10-22T00:50:46.796Z,100981.41
2022-10-22T00:53:22.955Z,100981.18
2022-10-22T00:55:53.415Z,100981.95
2022-10-22T00:58:26.295Z,100971.97
2022-10-22T01:00:56.556Z,100963.93
2022-10-22T01:03:26.615Z,100955.16
2022-10-22T01:05:59.326Z,100948.39
2022-10-22T01:08:48.963Z,100949.53
2022-10-22T01:11:42.662Z,100944.11
2022-10-22T01:14:35.877Z,100931.06
2022-10-22T01:17:10.595Z,100919.15
2022-10-22T01:20:15.574Z,100919.15
2022-10-22T01:23:25.618Z,100933.33
2022-10-22T01:26:26.791Z,100921.72
2022-10-22T01:29:16.275Z,100924.73
2022-10-22T01:32:06.204Z,100907.83
2022-10-22T01:34:36.678Z,100919.39
2022-10-22T01:37:06.280Z,100921.59
2022-10-22T01:39:35.472Z,100921.45
2022-10-22T01:42:04.395Z,100917.83
2022-10-22T01:47:26.192Z,100919.19
2022-10-22T01:50:10.270Z,100914.63
2022-10-22T01:53:11.591Z,100911.05
2022-10-22T01:56:09.079Z,100913.27
2022-10-22T01:59:02.077Z,100916.12
2022-10-22T02:02:07.240Z,100908.98
2022-10-22T02:04:47.954Z,100912.20
2022-10-22T02:07:20.752Z,100902.20
2022-10-22T02:09:51.321Z,100902.34
2022-10-22T02:12:22.604Z,100899.14
2022-10-22T02:14:51.605Z,100894.08
2022-10-22T02:17:22.480Z,100900.22
2022-10-22T02:20:03.615Z,100896.51
2022-10-22T02:22:33.748Z,100900.22
2022-10-22T02:25:02.885Z,100900.22
2022-10-22T02:27:48.876Z,100891.95
2022-10-22T02:30:20.624Z,100888.23
2022-10-22T02:33:21.314Z,100877.90
2022-10-22T02:35:51.491Z,100870.77
2022-10-22T02:38:24.792Z,100855.79
2022-10-22T02:40:54.301Z,100857.78
2022-10-22T02:43:25.556Z,100851.94
2022-10-22T02:45:54.748Z,100863.34
2022-10-22T02:48:23.845Z,100853.78
2022-10-22T02:50:53.545Z,100849.14
2022-10-22T02:53:22.816Z,100857.27
2022-10-22T02:55:53.943Z,100847.79
2022-10-22T02:58:23.486Z,100844.94
2022-10-22T03:00:53.425Z,100838.52
2022-10-22T03:03:24.350Z,100837.23
2022-10-22T03:05:55.387Z,100842.16
2022-10-22T03:08:26.196Z,100834.25
2022-10-22T03:10:54.965Z,100831.39
2022-10-22T03:13:25.998Z,100832.47
2022-10-22T03:15:57.176Z,100829.91
2022-10-22T03:18:26.912Z,100835.46
2022-10-22T03:21:06.131Z,100836.17
2022-10-22T03:23:36.182Z,100837.39
2022-10-22T03:26:05.491Z,100824.34
2022-10-22T03:28:36.383Z,100817.21
2022-10-22T03:31:06.261Z,100799.67
2022-10-22T03:33:36.654Z,100791.91
2022-10-22T03:36:07.058Z,100808.52
2022-10-22T03:38:38.330Z,100814.22
2022-10-22T03:41:07.498Z,100821.28
2022-10-22T03:43:38.071Z,100810.86
2022-10-22T03:46:07.328Z,100814.64
2022-10-22T03:48:36.548Z,100806.72
2022-10-22T03:51:07.298Z,100801.16
2022-10-22T03:53:36.025Z,100809.30
2022-10-22T03:56:10.163Z,100808.80
2022-10-22T03:58:40.473Z,100797.81
2022-10-22T04:01:12.357Z,100795.52
2022-10-22T04:03:42.052Z,100785.39
2022-10-22T04:06:12.831Z,100797.59
2022-10-22T04:08:42.546Z,100800.94
2022-10-22T04:11:12.949Z,100786.39
2022-10-22T04:13:43.359Z,100777.90
2022-10-22T04:16:21.815Z,100785.74
2022-10-22T04:18:52.561Z,100771.83
2022-10-22T04:21:22.410Z,100775.75
2022-10-22T04:24:13.337Z,100764.05
2022-10-22T04:26:43.072Z,100762.55
2022-10-22T04:29:15.953Z,100764.36
2022-10-22T04:31:44.883Z,100773.06
2022-10-22T04:34:16.124Z,100776.83
2022-10-22T04:36:45.470Z,100777.39
2022-10-22T04:39:15.406Z,100783.38
2022-10-22T04:41:44.851Z,100778.52
2022-10-22T04:44:17.602Z,100780.08
2022-10-22T04:46:47.453Z,100782.44
2022-10-22T04:49:17.017Z,100786.21
2022-10-22T04:51:46.922Z,100783.35
2022-10-22T04:54:16.677Z,100782.55
2022-10-22T04:56:46.436Z,100787.03
2022-10-22T04:59:16.758Z,100789.75
2022-10-22T05:01:46.567Z,100784.67
2022-10-22T05:04:17.503Z,100778.45
2022-10-22T05:06:46.746Z,100769.31
2022-10-22T05:09:18.296Z,100756.96
2022-10-22T05:11:49.543Z,100751.39
2022-10-22T05:14:21.270Z,100741.74
2022-10-22T05:16:52.688Z,100746.88
2022-10-22T05:19:29.374Z,100743.20
2022-10-22T05:22:02.143Z,100740.20
2022-10-22T05:24:32.713Z,100742.95
2022-10-22T05:27:02.845Z,100734.16
2022-10-22T05:29:32.566Z,100742.66
2022-10-22T05:32:02.527Z,100770.23
2022-10-22T05:34:33.515Z,100769.93
2022-10-22T05:37:04.110Z,100759.42
2022-10-22T05:39:35.396Z,100743.49
2022-10-22T05:42:05.339Z,100755.05
2022-10-22T05:44:34.833Z,100753.70
2022-10-22T05:47:04.502Z,100757.77
2022-10-22T05:49:34.817Z,100764.75
2022-10-22T05:52:05.557Z,100761.38
2022-10-22T05:54:35.107Z,100765.00
2022-10-22T05:57:04.496Z,100764.55
2022-10-22T05:59:33.816Z,100762.89
2022-10-22T06:02:03.650Z,100765.84
2022-10-22T06:04:33.193Z,100763.17
2022-10-22T06:07:02.537Z,100761.87
2022-10-22T06:12:09.061Z,100753.50
2022-10-22T06:14:40.065Z,100746.44
2022-10-22T06:17:13.130Z,100750.63
2022-10-22T06:19:44.145Z,100752.07
2022-10-22T06:22:14.452Z,100757.23
2022-10-22T06:24:45.410Z,100751.52
2022-10-22T06:27:15.569Z,100758.03
2022-10-22T06:29:46.834Z,100754.50
2022-10-22T06:32:15.803Z,100758.42
2022-10-22T06:34:48.244Z,100759.12
2022-10-22T06:37:17.329Z,100747.23
2022-10-22T06:39:46.351Z,100751.50
2022-10-22T06:42:16.664Z,100748.31
2022-10-22T06:44:46.422Z,100746.83
2022-10-22T06:47:15.711Z,100741.92
2022-10-22T06:49:46.719Z,100737.72
2022-10-22T06:52:17.138Z,100733.70
2022-10-22T06:54:46.433Z,100742.45
2022-10-22T06:57:16.413Z,100737.73
2022-10-22T06:59:47.240Z,100735.06
2022-10-22T07:02:17.170Z,100734.10
2022-10-22T07:04:47.010Z,100731.42
2022-10-22T07:07:15.876Z,100733.69
2022-10-22T07:09:47.327Z,100739.16
2022-10-22T07:12:17.598Z,100729.33
2022-10-22T07:14:49.555Z,100722.25
2022-10-22T07:17:21.375Z,100721.08
2022-10-22T07:19:51.329Z,100724.85
2022-10-22T07:22:22.256Z,100724.36
2022-10-22T07:24:51.564Z,100719.44
2022-10-22T07:27:20.504Z,100715.19
2022-10-22T07:29:50.063Z,100722.70
2022-10-22T07:32:31.507Z,100724.92
2022-10-22T07:35:01.871Z,100717.11
2022-10-22T07:37:32.756Z,100708.09
2022-10-22T07:40:04.136Z,100701.33
2022-10-22T07:42:33.869Z,100704.74
2022-10-22T07:45:04.050Z,100701.51
2022-10-22T07:47:34.574Z,100704.75
2022-10-22T07:50:06.734Z,100693.17
2022-10-22T07:52:35.890Z,100697.43
2022-10-22T07:55:07.731Z,100694.87
2022-10-22T07:57:38.691Z,100685.16
2022-10-22T08:00:09.176Z,100692.66
2022-10-22T08:02:40.861Z,100700.49
2022-10-22T08:05:10.347Z,100703.90
2022-10-22T08:07:39.784Z,100703.73
2022-10-22T08:10:09.527Z,100701.67
2022-10-22T08:12:39.145Z,100700.13
2022-10-22T08:15:10.631Z,100694.70
2022-10-22T08:17:40.191Z,100701.00
2022-10-22T08:20:10.902Z,100691.28
2022-10-22T08:22:39.774Z,100699.13
2022-10-22T08:25:10.061Z,100701.16
2022-10-22T08:27:38.800Z,100696.04
2022-10-22T08:30:09.231Z,100698.75
2022-10-22T08:32:38.051Z,100701.31
2022-10-22T08:35:11.110Z,100703.87
2022-10-22T08:37:41.314Z,100702.66
2022-10-22T08:40:12.533Z,100704.70
2022-10-22T08:43:11.929Z,100705.39
2022-10-22T08:46:01.432Z,100693.27
2022-10-22T08:48:44.398Z,100680.63
2022-10-22T08:51:17.669Z,100690.17
2022-10-22T08:54:07.421Z,100684.36
2022-10-22T08:56:38.929Z,100684.19
2022-10-22T08:59:19.853Z,100688.60
2022-10-22T09:01:53.809Z,100679.24
2022-10-22T09:04:41.440Z,100675.82
2022-10-22T09:07:10.595Z,100675.80
2022-10-22T09:09:42.736Z,100678.19
2022-10-22T09:12:19.212Z,100676.99
2022-10-22T09:14:45.534Z,100680.06
2022-10-22T09:17:41.557Z,100667.44
2022-10-22T09:20:21.373Z,100675.80
2022-10-22T09:23:22.343Z,100671.37
2022-10-22T09:25:52.550Z,100672.73
2022-10-22T09:28:22.677Z,100651.07
2022-10-22T09:30:52.418Z,100638.78
2022-10-22T09:33:28.033Z,100628.53
2022-10-22T09:36:01.754Z,100621.03
2022-10-22T09:38:33.401Z,100624.95
2022-10-22T09:41:04.775Z,100619.31
2022-10-22T09:43:35.833Z,100623.94
2022-10-22T09:46:07.910Z,100621.03
2022-10-22T09:48:42.444Z,100621.86
2022-10-22T09:51:23.412Z,100621.68
2022-10-22T09:54:01.587Z,100605.63
2022-10-22T09:56:37.236Z,100620.13
2022-10-22T09:59:11.251Z,100619.62
2022-10-22T10:01:41.421Z,100609.72
2022-10-22T10:04:13.705Z,100610.75
2022-10-22T10:06:44.667Z,100613.16
2022-10-22T10:09:19.297Z,100608.36
2022-10-22T10:12:11.024Z,100609.87
2022-10-22T10:14:47.233Z,100605.42
2022-10-22T10:17:46.094Z,100605.73
2022-10-22T10:20:29.469Z,100598.88
2022-10-22T10:23:23.126Z,100589.63
2022-10-22T10:26:07.173Z,100589.75
2022-10-22T10:28:58.117Z,100583.89
2022-10-22T10:32:23.720Z,100586.74
2022-10-22T10:35:27.788Z,100590.63
2022-10-22T10:38:29.765Z,100598.76
2022-10-22T10:41:29.392Z,100588.98
2022-10-22T10:44:31.583Z,100574.09
2022-10-22T10:47:31.337Z,100560.89
2022-10-22T10:50:37.032Z,100567.51
2022-10-22T10:53:37.373Z,100589.64
2022-10-22T10:56:49.607Z,100599.17
2022-10-22T10:59:54.712Z,100596.25
2022-10-22T11:03:12.540Z,100597.77
2022-10-22T11:06:10.662Z,100596.73
2022-10-22T11:08:45.719Z,100577.39
2022-10-22T11:11:24.982Z,100566.64
2022-10-22T11:14:04.255Z,100560.13
2022-10-22T11:17:01.737Z,100558.25
2022-10-22T11:19:54.618Z,100559.77
2022-10-22T11:22:34.528Z,100548.45
2022-10-22T11:25:18.430Z,100551.98
2022-10-22T11:28:06.601Z,100549.20
2022-10-22T11:30:37.623Z,100552.41
2022-10-22T11:33:12.501Z,100549.30
2022-10-22T11:35:44.615Z,100552.32
2022-10-22T11:38:20.823Z,100550.75
2022-10-22T11:41:16.340Z,100534.61
2022-10-22T11:43:58.179Z,100514.36
2022-10-22T11:46:41.771Z,100506.75
2022-10-22T11:49:18.602Z,100497.45
2022-10-22T11:51:48.077Z,100498.05
2022-10-22T11:54:43.991Z,100493.55
2022-10-22T11:57:24.416Z,100503.60
2022-10-22T11:59:59.527Z,100497.73
2022-10-22T12:02:45.957Z,100491.91
2022-10-22T12:05:29.046Z,100485.53
2022-10-22T12:08:17.891Z,100492.25
2022-10-22T12:11:06.459Z,100493.37
2022-10-22T12:14:17.086Z,100493.47
2022-10-22T12:16:57.449Z,100489.30
2022-10-22T12:19:31.771Z,100493.02
2022-10-22T12:22:17.597Z,100473.97
2022-10-22T12:24:52.231Z,100467.25
2022-10-22T12:27:40.773Z,100474.03
2022-10-22T12:30:23.660Z,100475.34
2022-10-22T12:33:02.558Z,100480.36
2022-10-22T12:35:36.049Z,100478.92
2022-10-22T12:38:15.062Z,100469.25
2022-10-22T12:40:48.383Z,100475.31
2022-10-22T12:43:22.832Z,100472.70
2022-10-22T12:45:52.624Z,100460.81
2022-10-22T12:48:29.041Z,100453.56
2022-10-22T12:51:03.660Z,100453.17
2022-10-22T12:53:39.120Z,100446.64
2022-10-22T12:56:24.360Z,100449.83
2022-10-22T12:59:07.991Z,100452.20
2022-10-22T13:01:39.681Z,100451.48
2022-10-22T13:04:22.874Z,100454.34
2022-10-22T13:06:55.908Z,100446.45
2022-10-22T13:09:27.665Z,100446.04
2022-10-22T13:12:04.739Z,100439.31
2022-10-22T13:14:35.953Z,100443.55
2022-10-22T13:17:19.005Z,100438.70
2022-10-22T13:19:57.965Z,100437.02
2022-10-22T13:22:38.105Z,100436.61
2022-10-22T13:25:22.136Z,100440.52
2022-10-22T13:28:04.611Z,100431.25
2022-10-22T13:30:38.656Z,100432.41
2022-10-22T13:33:28.792Z,100430.52
2022-10-22T13:35:59.748Z,100430.31
2022-10-22T13:38:30.158Z,100426.73
2022-10-22T13:41:00.628Z,100436.13
2022-10-22T13:43:30.866Z,100436.25
2022-10-22T13:46:01.148Z,100437.09
2022-10-22T13:48:30.121Z,100442.91
2022-10-22T13:51:00.649Z,100440.80
2022-10-22T13:53:30.940Z,100438.06
2022-10-22T13:56:01.351Z,100430.36
2022-10-22T13:58:31.908Z,100437.73
2022-10-22T14:01:02.706Z,100440.16
2022-10-22T14:03:35.537Z,100436.77
2022-10-22T14:06:10.380Z,100441.09
2022-10-22T14:08:40.894Z,100439.92
2022-10-22T14:11:13.857Z,100426.92
2022-10-22T14:13:43.147Z,100429.67
2022-10-22T14:16:20.608Z,100428.70
2022-10-22T14:18:50.078Z,100418.25
2022-10-22T14:21:21.261Z,100415.19
2022-10-22T14:23:54.131Z,100418.66
2022-10-22T14:26:27.870Z,100413.17
2022-10-22T14:29:09.136Z,100414.55
2022-10-22T14:31:29.210Z,100398.61
2022-10-22T14:33:59.413Z,100384.91
2022-10-22T14:36:29.139Z,100379.09
2022-10-22T14:38:59.430Z,100372.97
2022-10-22T14:41:29.087Z,100367.48
2022-10-22T14:43:59.548Z,100350.58
2022-10-22T14:46:30.360Z,100354.58
2022-10-22T14:49:00.314Z,100349.82
2022-10-22T14:51:29.790Z,100343.89
2022-10-22T14:53:58.854Z,100339.83
2022-10-22T14:56:29.181Z,100337.30
2022-10-22T14:59:00.426Z,100326.20
2022-10-22T15:01:30.141Z,100318.39
2022-10-22T15:03:59.670Z,100318.27
2022-10-22T15:06:30.902Z,100313.59
2022-10-22T15:09:02.735Z,100318.31
2022-10-22T15:11:31.883Z,100314.36
2022-10-22T15:14:03.449Z,100319.47
2022-10-22T15:16:34.455Z,100324.46
2022-10-22T15:19:05.282Z,100334.12
2022-10-22T15:21:35.267Z,100333.16
2022-10-22T15:24:06.764Z,100336.48
2022-10-22T15:26:38.328Z,100340.83
2022-10-22T15:29:10.520Z,100343.84
2022-10-22T15:31:53.567Z,100355.06
2022-10-22T15:34:34.680Z,100358.91
2022-10-22T15:37:08.474Z,100348.84
2022-10-22T15:39:41.972Z,100355.23
2022-10-22T15:42:12.060Z,100356.34
2022-10-22T15:44:42.009Z,100358.49
2022-10-22T15:47:13.183Z,100369.56
2022-10-22T15:49:43.022Z,100365.91
2022-10-22T15:52:13.696Z,100360.50
2022-10-22T15:54:44.215Z,100363.36
2022-10-22T15:57:15.256Z,100368.40
2022-10-22T15:59:47.033Z,100374.26
2022-10-22T16:02:17.240Z,100371.77
2022-10-22T16:04:46.567Z,100367.72
2022-10-22T16:07:19.838Z,100367.45
2022-10-22T16:09:50.384Z,100370.56
2022-10-22T16:12:20.022Z,100376.61
2022-10-22T16:14:53.259Z,100384.16
2022-10-22T16:17:23.293Z,100378.55
2022-10-22T16:19:55.135Z,100371.58
2022-10-22T16:22:25.687Z,100366.30
2022-10-22T16:24:56.554Z,100372.34
2022-10-22T16:27:26.775Z,100366.13
2022-10-22T16:29:56.967Z,100369.67
2022-10-22T16:32:27.771Z,100369.02
2022-10-22T16:34:57.932Z,100375.44
2022-10-22T16:37:27.313Z,100373.64
2022-10-22T16:40:00.958Z,100376.75
2022-10-22T16:42:31.670Z,100375.05
2022-10-22T16:45:01.585Z,100374.10
2022-10-22T16:47:31.740Z,100368.68
2022-10-22T16:50:03.046Z,100369.05
2022-10-22T16:52:33.390Z,100367.92
2022-10-22T16:55:03.674Z,100367.81
2022-10-22T16:57:34.421Z,100364.79
2022-10-22T17:00:07.120Z,100362.44
2022-10-22T17:02:38.115Z,100362.44
2022-10-22T17:05:09.960Z,100363.80
2022-10-22T17:07:40.887Z,100364.50
2022-10-22T17:10:12.035Z,100355.32
2022-10-22T17:12:43.486Z,100345.98
2022-10-22T17:15:13.487Z,100345.51
2022-10-22T17:17:47.624Z,100346.88
2022-10-22T17:20:18.145Z,100342.45
2022-10-22T17:22:50.070Z,100343.19
2022-10-22T17:25:30.754Z,100337.61
2022-10-22T17:28:02.503Z,100337.98
2022-10-22T17:30:33.025Z,100332.19
2022-10-22T17:33:03.084Z,100330.64
2022-10-22T17:35:35.047Z,100335.59
2022-10-22T17:38:04.404Z,100332.19
2022-10-22T17:40:35.467Z,100331.67
2022-10-22T17:43:04.522Z,100330.98
2022-10-22T17:45:34.429Z,100325.34
2022-10-22T17:48:05.178Z,100321.06
2022-10-22T17:50:35.232Z,100330.94
2022-10-22T17:53:05.955Z,100332.45
2022-10-22T17:55:36.340Z,100321.72
2022-10-22T17:58:08.992Z,100319.14
2022-10-22T18:00:39.031Z,100332.42
2022-10-22T18:03:09.815Z,100325.92
2022-10-22T18:05:39.838Z,100323.20
2022-10-22T18:08:09.492Z,100316.70
2022-10-22T18:10:41.818Z,100322.83
2022-10-22T18:13:11.903Z,100329.47
2022-10-22T18:15:41.966Z,100323.30
2022-10-22T18:18:14.881Z,100323.30
2022-10-22T18:20:50.995Z,100319.91
2022-10-22T18:23:21.857Z,100318.55
2022-10-22T18:25:53.065Z,100306.07
2022-10-22T18:28:23.587Z,100299.44
2022-10-22T18:30:52.931Z,100294.82
2022-10-22T18:33:25.588Z,100288.66
2022-10-22T18:35:57.251Z,100283.53
2022-10-22T18:38:27.269Z,100283.01
2022-10-22T18:40:56.290Z,100286.11
2022-10-22T18:43:25.713Z,100281.50
2022-10-22T18:45:55.482Z,100290.36
2022-10-22T18:48:27.183Z,100290.31
2022-10-22T18:51:06.457Z,100292.67
2022-10-22T18:53:40.247Z,100286.16
2022-10-22T18:56:11.792Z,100287.67
2022-10-22T18:58:45.479Z,100283.20
2022-10-22T19:01:21.581Z,100278.73
2022-10-22T19:03:51.296Z,100286.22
2022-10-22T19:06:26.498Z,100282.59
2022-10-22T19:08:57.292Z,100281.36
2022-10-22T19:11:27.733Z,100281.50
2022-10-22T19:13:57.485Z,100290.36
2022-10-22T19:16:29.440Z,100285.03
2022-10-22T19:19:04.098Z,100281.79
2022-10-22T19:21:34.137Z,100283.63
2022-10-22T19:24:06.725Z,100286.68
2022-10-22T19:26:38.669Z,100289.55
2022-10-22T19:29:11.498Z,100282.54
2022-10-22T19:31:44.477Z,100282.16
2022-10-22T19:34:16.753Z,100290.30
2022-10-22T19:36:47.971Z,100288.23
2022-10-22T19:39:18.029Z,100287.19
2022-10-22T19:41:50.517Z,100285.12
2022-10-22T19:44:20.204Z,100286.29
2022-10-22T19:46:50.352Z,100281.48
2022-10-22T19:49:22.166Z,100282.66
2022-10-22T19:51:52.356Z,100281.95
2022-10-22T19:54:22.005Z,100279.73
2022-10-22T19:56:52.166Z,100275.77
2022-10-22T19:59:27.262Z,100276.10
2022-10-22T20:01:57.534Z,100278.31
2022-10-22T20:04:28.671Z,100278.31
2022-10-22T20:06:58.445Z,100276.77
2022-10-22T20:09:28.962Z,100281.52
2022-10-22T20:11:59.518Z,100284.25
2022-10-22T20:14:30.071Z,100284.61
2022-10-22T20:17:00.516Z,100286.30
2022-10-22T20:19:30.260Z,100284.23
2022-10-22T20:22:01.755Z,100277.20
2022-10-22T20:24:33.289Z,100290.16
2022-10-22T20:27:02.686Z,100285.02
2022-10-22T20:29:31.885Z,100285.02
2022-10-22T20:32:05.439Z,100292.70
2022-10-22T20:34:36.547Z,100291.00
2022-10-22T20:37:07.017Z,100289.97
2022-10-22T20:39:37.528Z,100288.41
2022-10-22T20:42:08.291Z,100287.23
2022-10-22T20:44:37.449Z,100288.60
2022-10-22T20:47:09.521Z,100285.53
2022-10-22T20:49:40.450Z,100281.44
2022-10-22T20:52:10.716Z,100280.59
2022-10-22T20:54:43.623Z,100271.02
2022-10-22T20:57:13.471Z,100269.84
2022-10-22T20:59:45.628Z,100268.81
2022-10-22T21:02:15.502Z,100262.30
2022-10-22T21:04:46.382Z,100259.90
2022-10-22T21:07:16.890Z,100259.19
2022-10-22T21:09:46.700Z,100259.19
2022-10-22T21:12:16.426Z,100257.48
2022-10-22T21:14:46.847Z,100251.70
2022-10-22T21:17:20.163Z,100248.97
2022-10-22T21:19:50.294Z,100240.63
2022-10-22T21:22:25.055Z,100234.64
2022-10-22T21:24:56.080Z,100242.84
2022-10-22T21:27:25.526Z,100224.75
2022-10-22T21:29:55.409Z,100227.80
2022-10-22T21:32:29.042Z,100223.70
2022-10-22T21:34:58.652Z,100216.87
2022-10-22T21:37:30.524Z,100217.06
2022-10-22T21:40:04.180Z,100219.99
2022-10-22T21:42:35.900Z,100206.55
2022-10-22T21:45:12.029Z,100202.83
2022-10-22T21:47:40.935Z,100203.68
2022-10-22T21:50:10.624Z,100206.28
2022-10-22T21:52:40.579Z,100197.81
2022-10-22T21:55:10.600Z,100206.06
2022-10-22T21:57:41.798Z,100200.80
2022-10-22T22:00:13.283Z,100206.77
2022-10-22T22:02:47.271Z,100190.25
2022-10-22T22:05:17.835Z,100200.00
2022-10-22T22:07:47.769Z,100193.55
2022-10-22T22:10:18.301Z,100186.07
2022-10-22T22:12:51.996Z,100184.19
2022-10-22T22:15:21.868Z,100187.24
2022-10-22T22:17:52.390Z,100186.02
2022-10-22T22:20:23.233Z,100186.02
2022-10-22T22:22:52.898Z,100186.20
2022-10-22T22:25:22.158Z,100183.47
2022-10-22T22:27:53.094Z,100183.14
2022-10-22T22:30:22.656Z,100182.11
2022-10-22T22:32:53.160Z,100183.47
2022-10-22T22:35:24.121Z,100190.30
2022-10-22T22:37:53.839Z,100188.94
2022-10-22T22:40:23.248Z,100184.52
2022-10-22T22:42:52.933Z,100176.70
2022-10-22T22:45:23.416Z,100177.55
2022-10-22T22:47:55.882Z,100176.51
2022-10-22T22:50:25.470Z,100173.45
2022-10-22T22:52:54.173Z,100171.89
2022-10-22T22:55:23.461Z,100170.85
2022-10-22T22:57:53.119Z,100170.85
2022-10-22T23:00:23.376Z,100169.10
2022-10-22T23:02:58.988Z,100168.58
2022-10-22T23:05:28.574Z,100170.09
2022-10-22T23:07:59.550Z,100162.41
2022-10-22T23:10:30.483Z,100165.14
2022-10-22T23:12:59.727Z,100166.31
2022-10-22T23:15:30.165Z,100171.12
2022-10-22T23:18:01.103Z,100171.18
2022-10-22T23:20:31.214Z,100167.08
2022-10-22T23:23:01.454Z,100174.23
2022-10-22T23:25:31.481Z,100170.14
2022-10-22T23:28:03.673Z,100163.31
2022-10-22T23:30:33.741Z,100168.12
2022-10-22T23:33:04.465Z,100159.46
2022-10-22T23:35:34.629Z,100159.79
2022-10-22T23:38:04.969Z,100150.94
2022-10-22T23:40:34.817Z,100155.04
2022-10-22T23:43:04.724Z,100150.75
2022-10-22T23:45:36.811Z,100142.36
2022-10-22T23:48:07.199Z,100145.09
2022-10-22T23:50:39.253Z,100140.80
2022-10-22T23:53:09.825Z,100147.30
2022-10-22T23:55:41.095Z,100156.21
2022-10-22T23:58:11.634Z,100156.08
